sensor_id;sensor_type;location;lat;lon;timestamp;temperature;humidity
44215;DHT22;29884;47.450;19.124;2023-04-03T00:01:31;7.50;99.90
44215;DHT22;29884;47.450;19.124;2023-04-03T00:03:57;7.50;99.90
44215;DHT22;29884;47.450;19.124;2023-04-03T00:06:24;7.50;99.90
44215;DHT22;29884;47.450;19.124;2023-04-03T00:08:50;7.50;99.90
44215;DHT22;29884;47.450;19.124;2023-04-03T00:11:17;7.50;99.90
44215;DHT22;29884;47.450;19.124;2023-04-03T00:13:43;7.50;99.90
44215;DHT22;29884;47.450;19.124;2023-04-03T00:16:09;7.40;99.90
44215;DHT22;29884;47.450;19.124;2023-04-03T00:18:36;7.40;99.90
44215;DHT22;29884;47.450;19.124;2023-04-03T00:21:02;7.50;99.90
44215;DHT22;29884;47.450;19.124;2023-04-03T00:23:28;7.50;99.90
44215;DHT22;29884;47.450;19.124;2023-04-03T00:25:54;7.50;99.90
44215;DHT22;29884;47.450;19.124;2023-04-03T00:28:21;7.60;99.90
44215;DHT22;29884;47.450;19.124;2023-04-03T00:30:48;7.50;99.90
44215;DHT22;29884;47.450;19.124;2023-04-03T00:33:14;7.50;99.90
44215;DHT22;29884;47.450;19.124;2023-04-03T00:35:40;7.50;99.90
44215;DHT22;29884;47.450;19.124;2023-04-03T00:38:06;7.50;99.90
44215;DHT22;29884;47.450;19.124;2023-04-03T00:40:43;7.50;99.90
44215;DHT22;29884;47.450;19.124;2023-04-03T00:43:24;7.40;99.90
44215;DHT22;29884;47.450;19.124;2023-04-03T00:45:51;7.40;99.90
44215;DHT22;29884;47.450;19.124;2023-04-03T00:50:58;7.20;99.90
44215;DHT22;29884;47.450;19.124;2023-04-03T00:53:30;7.20;99.90
44215;DHT22;29884;47.450;19.124;2023-04-03T00:55:56;7.20;99.90
44215;DHT22;29884;47.450;19.124;2023-04-03T00:58:48;7.20;99.90
44215;DHT22;29884;47.450;19.124;2023-04-03T01:01:15;7.20;99.90
44215;DHT22;29884;47.450;19.124;2023-04-03T01:03:42;7.20;99.90
44215;DHT22;29884;47.450;19.124;2023-04-03T01:06:08;7.10;99.90
44215;DHT22;29884;47.450;19.124;2023-04-03T01:08:34;7.20;99.90
44215;DHT22;29884;47.450;19.124;2023-04-03T01:11:00;7.30;99.90
44215;DHT22;29884;47.450;19.124;2023-04-03T01:13:29;7.30;99.90
44215;DHT22;29884;47.450;19.124;2023-04-03T01:15:55;7.30;99.90
44215;DHT22;29884;47.450;19.124;2023-04-03T01:18:25;7.30;99.90
44215;DHT22;29884;47.450;19.124;2023-04-03T01:26:13;7.20;99.90
44215;DHT22;29884;47.450;19.124;2023-04-03T01:28:39;7.10;99.90
44215;DHT22;29884;47.450;19.124;2023-04-03T01:34:06;7.10;99.90
44215;DHT22;29884;47.450;19.124;2023-04-03T01:36:32;7.20;99.90
44215;DHT22;29884;47.450;19.124;2023-04-03T01:38:59;7.20;99.90
44215;DHT22;29884;47.450;19.124;2023-04-03T01:41:25;7.20;99.90
44215;DHT22;29884;47.450;19.124;2023-04-03T01:43:51;7.20;99.90
44215;DHT22;29884;47.450;19.124;2023-04-03T01:46:18;7.20;99.90
44215;DHT22;29884;47.450;19.124;2023-04-03T01:48:44;7.20;99.90
44215;DHT22;29884;47.450;19.124;2023-04-03T01:51:10;7.20;99.90
44215;DHT22;29884;47.450;19.124;2023-04-03T01:53:36;7.20;99.90
44215;DHT22;29884;47.450;19.124;2023-04-03T01:56:02;7.20;99.90
44215;DHT22;29884;47.450;19.124;2023-04-03T01:58:27;7.20;99.90
44215;DHT22;29884;47.450;19.124;2023-04-03T02:00:53;7.20;99.90
44215;DHT22;29884;47.450;19.124;2023-04-03T02:03:20;7.10;99.90
44215;DHT22;29884;47.450;19.124;2023-04-03T02:05:46;7.10;99.90
44215;DHT22;29884;47.450;19.124;2023-04-03T02:08:11;7.10;99.90
44215;DHT22;29884;47.450;19.124;2023-04-03T02:10:38;7.20;99.90
44215;DHT22;29884;47.450;19.124;2023-04-03T02:13:04;7.20;99.90
44215;DHT22;29884;47.450;19.124;2023-04-03T02:15:30;7.20;99.90
44215;DHT22;29884;47.450;19.124;2023-04-03T02:17:56;7.20;99.90
44215;DHT22;29884;47.450;19.124;2023-04-03T02:20:22;7.20;99.90
44215;DHT22;29884;47.450;19.124;2023-04-03T02:22:48;7.10;99.90
44215;DHT22;29884;47.450;19.124;2023-04-03T02:25:13;7.10;99.90
44215;DHT22;29884;47.450;19.124;2023-04-03T02:27:40;7.00;99.90
44215;DHT22;29884;47.450;19.124;2023-04-03T02:30:06;7.00;99.90
44215;DHT22;29884;47.450;19.124;2023-04-03T02:32:32;7.00;99.90
44215;DHT22;29884;47.450;19.124;2023-04-03T02:34:57;7.00;99.90
44215;DHT22;29884;47.450;19.124;2023-04-03T02:37:23;7.00;99.90
44215;DHT22;29884;47.450;19.124;2023-04-03T02:39:49;7.00;99.90
44215;DHT22;29884;47.450;19.124;2023-04-03T02:42:15;7.00;99.90
44215;DHT22;29884;47.450;19.124;2023-04-03T02:44:41;6.90;99.90
44215;DHT22;29884;47.450;19.124;2023-04-03T02:47:06;6.80;99.90
44215;DHT22;29884;47.450;19.124;2023-04-03T02:49:32;6.80;99.90
44215;DHT22;29884;47.450;19.124;2023-04-03T02:51:58;6.80;99.90
44215;DHT22;29884;47.450;19.124;2023-04-03T02:54:24;6.70;99.90
44215;DHT22;29884;47.450;19.124;2023-04-03T02:56:53;6.70;99.90
44215;DHT22;29884;47.450;19.124;2023-04-03T02:59:19;6.70;99.90
44215;DHT22;29884;47.450;19.124;2023-04-03T03:01:45;6.70;99.90
44215;DHT22;29884;47.450;19.124;2023-04-03T03:04:11;6.70;99.90
44215;DHT22;29884;47.450;19.124;2023-04-03T03:06:37;6.70;99.90
44215;DHT22;29884;47.450;19.124;2023-04-03T03:09:03;6.60;99.90
44215;DHT22;29884;47.450;19.124;2023-04-03T03:11:29;6.60;99.90
44215;DHT22;29884;47.450;19.124;2023-04-03T03:13:57;6.60;99.90
44215;DHT22;29884;47.450;19.124;2023-04-03T03:16:23;6.60;99.90
44215;DHT22;29884;47.450;19.124;2023-04-03T03:18:48;6.60;99.90
44215;DHT22;29884;47.450;19.124;2023-04-03T03:21:14;6.50;99.90
44215;DHT22;29884;47.450;19.124;2023-04-03T03:23:40;6.50;99.90
44215;DHT22;29884;47.450;19.124;2023-04-03T03:26:09;6.50;99.90
44215;DHT22;29884;47.450;19.124;2023-04-03T03:28:36;6.40;99.90
44215;DHT22;29884;47.450;19.124;2023-04-03T03:31:02;6.40;99.90
44215;DHT22;29884;47.450;19.124;2023-04-03T03:33:29;6.40;99.90
44215;DHT22;29884;47.450;19.124;2023-04-03T03:35:55;6.40;99.90
44215;DHT22;29884;47.450;19.124;2023-04-03T03:38:21;6.30;99.90
44215;DHT22;29884;47.450;19.124;2023-04-03T03:40:48;6.30;99.90
44215;DHT22;29884;47.450;19.124;2023-04-03T03:43:14;6.30;99.90
44215;DHT22;29884;47.450;19.124;2023-04-03T03:45:40;6.20;99.90
44215;DHT22;29884;47.450;19.124;2023-04-03T03:48:06;6.20;99.90
44215;DHT22;29884;47.450;19.124;2023-04-03T03:50:32;6.20;99.90
44215;DHT22;29884;47.450;19.124;2023-04-03T03:52:58;6.10;99.90
44215;DHT22;29884;47.450;19.124;2023-04-03T03:55:23;6.10;99.90
44215;DHT22;29884;47.450;19.124;2023-04-03T03:57:49;6.10;99.90
44215;DHT22;29884;47.450;19.124;2023-04-03T04:00:15;6.10;99.90
44215;DHT22;29884;47.450;19.124;2023-04-03T04:02:42;6.10;99.90
44215;DHT22;29884;47.450;19.124;2023-04-03T04:05:07;5.90;99.90
44215;DHT22;29884;47.450;19.124;2023-04-03T04:07:33;5.90;99.90
44215;DHT22;29884;47.450;19.124;2023-04-03T04:09:59;5.90;99.90
44215;DHT22;29884;47.450;19.124;2023-04-03T04:12:25;5.90;99.90
44215;DHT22;29884;47.450;19.124;2023-04-03T04:14:50;5.80;99.90
44215;DHT22;29884;47.450;19.124;2023-04-03T04:17:16;5.80;99.90
44215;DHT22;29884;47.450;19.124;2023-04-03T04:19:42;5.80;99.90
44215;DHT22;29884;47.450;19.124;2023-04-03T04:22:07;5.90;99.90
44215;DHT22;29884;47.450;19.124;2023-04-03T04:24:33;5.90;99.90
44215;DHT22;29884;47.450;19.124;2023-04-03T04:26:59;5.90;99.90
44215;DHT22;29884;47.450;19.124;2023-04-03T04:29:25;5.80;99.90
44215;DHT22;29884;47.450;19.124;2023-04-03T04:31:51;5.80;99.90
44215;DHT22;29884;47.450;19.124;2023-04-03T04:34:18;5.80;99.90
44215;DHT22;29884;47.450;19.124;2023-04-03T04:36:44;5.70;99.90
44215;DHT22;29884;47.450;19.124;2023-04-03T04:39:10;5.70;99.90
44215;DHT22;29884;47.450;19.124;2023-04-03T04:41:35;5.60;99.90
44215;DHT22;29884;47.450;19.124;2023-04-03T04:44:01;5.70;99.90
44215;DHT22;29884;47.450;19.124;2023-04-03T04:46:27;5.60;99.90
44215;DHT22;29884;47.450;19.124;2023-04-03T04:48:53;5.60;99.90
44215;DHT22;29884;47.450;19.124;2023-04-03T04:51:19;5.60;99.90
44215;DHT22;29884;47.450;19.124;2023-04-03T04:53:44;5.60;99.90
44215;DHT22;29884;47.450;19.124;2023-04-03T04:56:11;5.60;99.90
44215;DHT22;29884;47.450;19.124;2023-04-03T04:58:37;5.60;99.90
44215;DHT22;29884;47.450;19.124;2023-04-03T05:01:04;5.60;99.90
44215;DHT22;29884;47.450;19.124;2023-04-03T05:03:31;5.60;99.90
44215;DHT22;29884;47.450;19.124;2023-04-03T05:05:57;5.60;99.90
44215;DHT22;29884;47.450;19.124;2023-04-03T05:08:23;5.60;99.90
44215;DHT22;29884;47.450;19.124;2023-04-03T05:10:49;5.60;99.90
44215;DHT22;29884;47.450;19.124;2023-04-03T05:13:15;5.60;99.90
44215;DHT22;29884;47.450;19.124;2023-04-03T05:15:41;5.70;99.90
44215;DHT22;29884;47.450;19.124;2023-04-03T05:18:07;6.20;99.90
44215;DHT22;29884;47.450;19.124;2023-04-03T05:20:33;6.70;99.90
44215;DHT22;29884;47.450;19.124;2023-04-03T05:22:59;6.60;99.90
44215;DHT22;29884;47.450;19.124;2023-04-03T05:25:25;6.60;99.90
44215;DHT22;29884;47.450;19.124;2023-04-03T05:27:51;6.60;99.90
44215;DHT22;29884;47.450;19.124;2023-04-03T05:30:17;6.30;99.90
44215;DHT22;29884;47.450;19.124;2023-04-03T05:32:43;6.30;99.90
44215;DHT22;29884;47.450;19.124;2023-04-03T05:35:09;6.00;99.90
44215;DHT22;29884;47.450;19.124;2023-04-03T05:37:35;6.00;99.90
44215;DHT22;29884;47.450;19.124;2023-04-03T05:40:01;6.00;99.90
44215;DHT22;29884;47.450;19.124;2023-04-03T05:42:27;5.90;99.90
44215;DHT22;29884;47.450;19.124;2023-04-03T05:44:53;5.90;99.90
44215;DHT22;29884;47.450;19.124;2023-04-03T05:47:19;5.80;99.90
44215;DHT22;29884;47.450;19.124;2023-04-03T05:49:45;5.80;99.90
44215;DHT22;29884;47.450;19.124;2023-04-03T05:52:30;5.70;99.90
44215;DHT22;29884;47.450;19.124;2023-04-03T05:54:56;5.80;99.90
44215;DHT22;29884;47.450;19.124;2023-04-03T05:57:22;5.70;99.90
44215;DHT22;29884;47.450;19.124;2023-04-03T05:59:48;5.70;99.90
44215;DHT22;29884;47.450;19.124;2023-04-03T06:02:22;5.80;99.90
44215;DHT22;29884;47.450;19.124;2023-04-03T06:04:48;5.80;99.90
44215;DHT22;29884;47.450;19.124;2023-04-03T06:07:16;5.80;99.90
44215;DHT22;29884;47.450;19.124;2023-04-03T06:09:43;5.90;99.90
44215;DHT22;29884;47.450;19.124;2023-04-03T06:12:10;6.00;99.90
44215;DHT22;29884;47.450;19.124;2023-04-03T06:14:36;6.10;99.90
44215;DHT22;29884;47.450;19.124;2023-04-03T06:17:03;6.00;99.90
44215;DHT22;29884;47.450;19.124;2023-04-03T06:19:30;6.10;99.90
44215;DHT22;29884;47.450;19.124;2023-04-03T06:21:56;6.20;99.90
44215;DHT22;29884;47.450;19.124;2023-04-03T06:24:22;6.30;99.90
44215;DHT22;29884;47.450;19.124;2023-04-03T06:26:49;6.40;99.90
44215;DHT22;29884;47.450;19.124;2023-04-03T06:29:17;6.30;99.90
44215;DHT22;29884;47.450;19.124;2023-04-03T06:31:43;6.40;99.90
44215;DHT22;29884;47.450;19.124;2023-04-03T06:34:09;6.50;99.90
44215;DHT22;29884;47.450;19.124;2023-04-03T06:36:36;6.60;99.90
44215;DHT22;29884;47.450;19.124;2023-04-03T06:39:02;6.60;99.90
44215;DHT22;29884;47.450;19.124;2023-04-03T06:41:28;6.70;99.90
44215;DHT22;29884;47.450;19.124;2023-04-03T06:43:54;6.80;99.90
44215;DHT22;29884;47.450;19.124;2023-04-03T06:46:22;6.70;99.90
44215;DHT22;29884;47.450;19.124;2023-04-03T06:48:49;6.80;99.90
44215;DHT22;29884;47.450;19.124;2023-04-03T06:51:18;6.70;99.90
44215;DHT22;29884;47.450;19.124;2023-04-03T06:53:45;6.90;99.90
44215;DHT22;29884;47.450;19.124;2023-04-03T06:56:11;7.00;99.90
44215;DHT22;29884;47.450;19.124;2023-04-03T06:58:37;7.10;99.90
44215;DHT22;29884;47.450;19.124;2023-04-03T07:01:03;7.20;99.90
44215;DHT22;29884;47.450;19.124;2023-04-03T07:03:29;7.20;99.90
44215;DHT22;29884;47.450;19.124;2023-04-03T07:05:54;7.30;99.90
44215;DHT22;29884;47.450;19.124;2023-04-03T07:08:20;7.20;99.90
44215;DHT22;29884;47.450;19.124;2023-04-03T07:10:48;7.30;99.90
44215;DHT22;29884;47.450;19.124;2023-04-03T07:13:14;7.30;99.90
44215;DHT22;29884;47.450;19.124;2023-04-03T07:15:40;7.50;99.90
44215;DHT22;29884;47.450;19.124;2023-04-03T07:18:05;7.50;99.90
44215;DHT22;29884;47.450;19.124;2023-04-03T07:20:31;7.50;99.90
44215;DHT22;29884;47.450;19.124;2023-04-03T07:22:57;7.40;99.90
44215;DHT22;29884;47.450;19.124;2023-04-03T07:25:23;7.50;99.90
44215;DHT22;29884;47.450;19.124;2023-04-03T07:27:48;7.50;99.90
44215;DHT22;29884;47.450;19.124;2023-04-03T07:30:15;7.60;99.90
44215;DHT22;29884;47.450;19.124;2023-04-03T07:32:41;7.60;99.90
44215;DHT22;29884;47.450;19.124;2023-04-03T07:35:07;7.80;99.90
44215;DHT22;29884;47.450;19.124;2023-04-03T07:37:33;7.90;99.90
44215;DHT22;29884;47.450;19.124;2023-04-03T07:39:58;8.10;99.90
44215;DHT22;29884;47.450;19.124;2023-04-03T07:42:25;7.90;99.90
44215;DHT22;29884;47.450;19.124;2023-04-03T07:44:53;8.00;99.90
44215;DHT22;29884;47.450;19.124;2023-04-03T07:47:19;8.20;99.90
44215;DHT22;29884;47.450;19.124;2023-04-03T07:49:46;8.30;99.90
44215;DHT22;29884;47.450;19.124;2023-04-03T07:52:12;8.40;99.90
44215;DHT22;29884;47.450;19.124;2023-04-03T07:54:40;8.50;99.90
44215;DHT22;29884;47.450;19.124;2023-04-03T07:57:05;8.40;99.90
44215;DHT22;29884;47.450;19.124;2023-04-03T07:59:31;8.50;99.90
44215;DHT22;29884;47.450;19.124;2023-04-03T08:01:57;8.60;99.90
44215;DHT22;29884;47.450;19.124;2023-04-03T08:04:23;8.60;99.90
44215;DHT22;29884;47.450;19.124;2023-04-03T08:06:49;8.60;99.90
44215;DHT22;29884;47.450;19.124;2023-04-03T08:09:15;8.80;99.90
44215;DHT22;29884;47.450;19.124;2023-04-03T08:11:41;8.70;99.90
44215;DHT22;29884;47.450;19.124;2023-04-03T08:14:07;8.90;99.90
44215;DHT22;29884;47.450;19.124;2023-04-03T08:16:33;8.90;99.90
44215;DHT22;29884;47.450;19.124;2023-04-03T08:18:58;8.80;99.70
44215;DHT22;29884;47.450;19.124;2023-04-03T08:21:24;8.90;99.60
44215;DHT22;29884;47.450;19.124;2023-04-03T08:23:51;9.00;98.80
44215;DHT22;29884;47.450;19.124;2023-04-03T08:26:19;9.20;99.30
44215;DHT22;29884;47.450;19.124;2023-04-03T08:28:47;9.20;98.10
44215;DHT22;29884;47.450;19.124;2023-04-03T08:31:18;9.00;99.00
44215;DHT22;29884;47.450;19.124;2023-04-03T08:33:45;9.10;99.10
44215;DHT22;29884;47.450;19.124;2023-04-03T08:36:22;9.20;99.80
44215;DHT22;29884;47.450;19.124;2023-04-03T08:38:49;9.10;97.60
44215;DHT22;29884;47.450;19.124;2023-04-03T08:41:37;9.10;98.40
44215;DHT22;29884;47.450;19.124;2023-04-03T08:49:49;9.20;98.50
44215;DHT22;29884;47.450;19.124;2023-04-03T08:52:41;9.30;98.20
44215;DHT22;29884;47.450;19.124;2023-04-03T08:55:34;9.30;97.80
44215;DHT22;29884;47.450;19.124;2023-04-03T08:58:04;9.40;97.50
44215;DHT22;29884;47.450;19.124;2023-04-03T09:00:41;9.40;97.20
44215;DHT22;29884;47.450;19.124;2023-04-03T09:03:13;9.30;96.20
44215;DHT22;29884;47.450;19.124;2023-04-03T09:08:29;9.30;95.40
44215;DHT22;29884;47.450;19.124;2023-04-03T09:11:45;9.40;95.40
44215;DHT22;29884;47.450;19.124;2023-04-03T09:14:36;9.50;96.30
44215;DHT22;29884;47.450;19.124;2023-04-03T09:22:44;10.10;94.10
44215;DHT22;29884;47.450;19.124;2023-04-03T09:25:32;10.30;95.20
44215;DHT22;29884;47.450;19.124;2023-04-03T09:28:00;10.20;94.30
44215;DHT22;29884;47.450;19.124;2023-04-03T09:30:27;10.20;95.00
44215;DHT22;29884;47.450;19.124;2023-04-03T09:32:56;10.00;92.80
44215;DHT22;29884;47.450;19.124;2023-04-03T09:35:25;9.80;93.10
44215;DHT22;29884;47.450;19.124;2023-04-03T09:37:53;9.90;93.70
44215;DHT22;29884;47.450;19.124;2023-04-03T09:42:53;10.30;93.80
44215;DHT22;29884;47.450;19.124;2023-04-03T09:45:37;10.40;93.40
44215;DHT22;29884;47.450;19.124;2023-04-03T09:48:24;10.30;92.20
44215;DHT22;29884;47.450;19.124;2023-04-03T09:53:47;10.60;92.40
44215;DHT22;29884;47.450;19.124;2023-04-03T09:58:47;10.90;90.20
44215;DHT22;29884;47.450;19.124;2023-04-03T10:01:27;10.90;90.80
44215;DHT22;29884;47.450;19.124;2023-04-03T10:04:20;11.00;91.10
44215;DHT22;29884;47.450;19.124;2023-04-03T10:06:50;10.90;90.00
44215;DHT22;29884;47.450;19.124;2023-04-03T10:14:22;11.30;88.20
44215;DHT22;29884;47.450;19.124;2023-04-03T10:19:41;10.80;88.00
44215;DHT22;29884;47.450;19.124;2023-04-03T10:25:04;10.70;90.00
44215;DHT22;29884;47.450;19.124;2023-04-03T10:30:29;10.30;88.70
44215;DHT22;29884;47.450;19.124;2023-04-03T10:35:35;10.10;89.90
44215;DHT22;29884;47.450;19.124;2023-04-03T10:38:24;10.00;89.60
44215;DHT22;29884;47.450;19.124;2023-04-03T10:41:04;10.10;89.50
44215;DHT22;29884;47.450;19.124;2023-04-03T10:43:33;10.10;87.60
44215;DHT22;29884;47.450;19.124;2023-04-03T10:46:33;10.10;88.70
44215;DHT22;29884;47.450;19.124;2023-04-03T10:52:14;10.00;87.20
44215;DHT22;29884;47.450;19.124;2023-04-03T10:54:51;10.00;88.10
44215;DHT22;29884;47.450;19.124;2023-04-03T10:57:20;10.10;87.70
44215;DHT22;29884;47.450;19.124;2023-04-03T10:59:55;10.20;87.10
44215;DHT22;29884;47.450;19.124;2023-04-03T11:02:29;10.20;85.20
44215;DHT22;29884;47.450;19.124;2023-04-03T11:05:08;10.20;88.10
44215;DHT22;29884;47.450;19.124;2023-04-03T11:07:40;10.20;85.10
44215;DHT22;29884;47.450;19.124;2023-04-03T11:13:24;10.20;86.20
44215;DHT22;29884;47.450;19.124;2023-04-03T11:15:53;10.20;84.50
44215;DHT22;29884;47.450;19.124;2023-04-03T11:21:22;10.30;85.30
44215;DHT22;29884;47.450;19.124;2023-04-03T11:23:52;10.50;84.80
44215;DHT22;29884;47.450;19.124;2023-04-03T11:26:21;10.60;86.40
44215;DHT22;29884;47.450;19.124;2023-04-03T11:28:53;10.60;85.90
44215;DHT22;29884;47.450;19.124;2023-04-03T11:34:27;10.70;82.20
44215;DHT22;29884;47.450;19.124;2023-04-03T11:36:59;10.60;80.30
44215;DHT22;29884;47.450;19.124;2023-04-03T11:39:31;10.70;81.80
44215;DHT22;29884;47.450;19.124;2023-04-03T11:44:49;11.10;81.10
44215;DHT22;29884;47.450;19.124;2023-04-03T11:50:39;10.80;80.00
44215;DHT22;29884;47.450;19.124;2023-04-03T12:01:03;11.10;80.80
44215;DHT22;29884;47.450;19.124;2023-04-03T12:35:23;10.70;78.30
44215;DHT22;29884;47.450;19.124;2023-04-03T12:46:26;10.80;78.70
44215;DHT22;29884;47.450;19.124;2023-04-03T12:51:40;10.60;80.60
44215;DHT22;29884;47.450;19.124;2023-04-03T12:54:16;10.80;81.70
44215;DHT22;29884;47.450;19.124;2023-04-03T12:56:42;11.00;80.30
44215;DHT22;29884;47.450;19.124;2023-04-03T13:01:43;10.80;79.40
44215;DHT22;29884;47.450;19.124;2023-04-03T13:04:11;10.80;79.40
44215;DHT22;29884;47.450;19.124;2023-04-03T13:06:42;10.70;80.90
44215;DHT22;29884;47.450;19.124;2023-04-03T13:09:24;10.90;77.00
44215;DHT22;29884;47.450;19.124;2023-04-03T13:12:03;10.80;75.40
44215;DHT22;29884;47.450;19.124;2023-04-03T13:14:36;10.90;74.60
44215;DHT22;29884;47.450;19.124;2023-04-03T13:17:13;11.00;77.50
44215;DHT22;29884;47.450;19.124;2023-04-03T13:19:40;10.90;77.30
44215;DHT22;29884;47.450;19.124;2023-04-03T13:24:54;10.70;75.00
44215;DHT22;29884;47.450;19.124;2023-04-03T13:27:21;10.70;75.80
44215;DHT22;29884;47.450;19.124;2023-04-03T13:29:53;10.90;76.00
44215;DHT22;29884;47.450;19.124;2023-04-03T13:32:24;11.00;75.10
44215;DHT22;29884;47.450;19.124;2023-04-03T13:34:52;10.90;74.60
44215;DHT22;29884;47.450;19.124;2023-04-03T13:37:32;11.00;75.50
44215;DHT22;29884;47.450;19.124;2023-04-03T13:42:35;10.90;75.10
44215;DHT22;29884;47.450;19.124;2023-04-03T13:45:22;10.80;75.30
44215;DHT22;29884;47.450;19.124;2023-04-03T13:47:51;10.80;73.60
44215;DHT22;29884;47.450;19.124;2023-04-03T13:50:22;10.90;74.40
44215;DHT22;29884;47.450;19.124;2023-04-03T13:52:55;10.90;74.50
44215;DHT22;29884;47.450;19.124;2023-04-03T13:55:28;10.90;72.50
44215;DHT22;29884;47.450;19.124;2023-04-03T13:58:16;11.10;73.50
44215;DHT22;29884;47.450;19.124;2023-04-03T14:03:44;11.10;70.50
44215;DHT22;29884;47.450;19.124;2023-04-03T14:06:14;11.30;70.90
44215;DHT22;29884;47.450;19.124;2023-04-03T14:08:41;11.30;71.00
44215;DHT22;29884;47.450;19.124;2023-04-03T14:11:14;11.40;71.50
44215;DHT22;29884;47.450;19.124;2023-04-03T14:13:41;11.40;70.30
44215;DHT22;29884;47.450;19.124;2023-04-03T14:16:06;11.20;71.30
44215;DHT22;29884;47.450;19.124;2023-04-03T14:18:32;11.30;70.90
44215;DHT22;29884;47.450;19.124;2023-04-03T14:20:58;11.40;71.50
44215;DHT22;29884;47.450;19.124;2023-04-03T14:23:24;11.30;70.80
44215;DHT22;29884;47.450;19.124;2023-04-03T14:25:49;11.30;70.80
44215;DHT22;29884;47.450;19.124;2023-04-03T14:28:19;11.40;71.00
44215;DHT22;29884;47.450;19.124;2023-04-03T14:30:47;11.40;71.60
44215;DHT22;29884;47.450;19.124;2023-04-03T14:33:15;11.40;71.70
44215;DHT22;29884;47.450;19.124;2023-04-03T14:35:42;11.30;70.90
44215;DHT22;29884;47.450;19.124;2023-04-03T14:38:29;11.40;71.50
44215;DHT22;29884;47.450;19.124;2023-04-03T14:40:56;11.30;71.50
44215;DHT22;29884;47.450;19.124;2023-04-03T14:43:22;11.20;70.80
44215;DHT22;29884;47.450;19.124;2023-04-03T14:45:49;11.40;71.30
44215;DHT22;29884;47.450;19.124;2023-04-03T14:48:22;11.40;70.50
44215;DHT22;29884;47.450;19.124;2023-04-03T14:50:50;11.20;68.40
44215;DHT22;29884;47.450;19.124;2023-04-03T14:53:16;11.10;67.50
44215;DHT22;29884;47.450;19.124;2023-04-03T14:55:45;11.10;69.40
44215;DHT22;29884;47.450;19.124;2023-04-03T14:58:16;11.10;70.90
44215;DHT22;29884;47.450;19.124;2023-04-03T15:00:42;11.00;71.00
44215;DHT22;29884;47.450;19.124;2023-04-03T15:03:16;11.10;71.30
44215;DHT22;29884;47.450;19.124;2023-04-03T15:05:44;11.00;71.10
44215;DHT22;29884;47.450;19.124;2023-04-03T15:08:25;10.80;72.20
44215;DHT22;29884;47.450;19.124;2023-04-03T15:10:52;10.80;73.00
44215;DHT22;29884;47.450;19.124;2023-04-03T15:13:19;10.70;73.50
44215;DHT22;29884;47.450;19.124;2023-04-03T15:15:45;10.70;71.60
44215;DHT22;29884;47.450;19.124;2023-04-03T15:18:22;10.70;74.00
44215;DHT22;29884;47.450;19.124;2023-04-03T15:20:52;10.60;73.80
44215;DHT22;29884;47.450;19.124;2023-04-03T15:23:18;10.60;74.20
44215;DHT22;29884;47.450;19.124;2023-04-03T15:25:46;10.60;74.60
44215;DHT22;29884;47.450;19.124;2023-04-03T15:28:31;10.50;74.10
44215;DHT22;29884;47.450;19.124;2023-04-03T15:30:58;10.50;74.50
44215;DHT22;29884;47.450;19.124;2023-04-03T15:33:24;10.50;74.30
44215;DHT22;29884;47.450;19.124;2023-04-03T15:35:50;10.40;75.10
44215;DHT22;29884;47.450;19.124;2023-04-03T15:38:16;10.40;74.70
44215;DHT22;29884;47.450;19.124;2023-04-03T15:40:42;10.30;74.40
44215;DHT22;29884;47.450;19.124;2023-04-03T15:43:09;10.30;73.80
44215;DHT22;29884;47.450;19.124;2023-04-03T15:45:36;10.30;74.80
44215;DHT22;29884;47.450;19.124;2023-04-03T15:48:03;10.30;74.60
44215;DHT22;29884;47.450;19.124;2023-04-03T15:50:29;10.20;75.20
44215;DHT22;29884;47.450;19.124;2023-04-03T15:52:55;10.30;74.80
44215;DHT22;29884;47.450;19.124;2023-04-03T15:55:24;10.30;74.80
44215;DHT22;29884;47.450;19.124;2023-04-03T15:57:50;10.30;74.60
44215;DHT22;29884;47.450;19.124;2023-04-03T16:00:16;10.30;75.30
44215;DHT22;29884;47.450;19.124;2023-04-03T16:02:44;10.30;74.50
44215;DHT22;29884;47.450;19.124;2023-04-03T16:05:11;10.20;74.30
44215;DHT22;29884;47.450;19.124;2023-04-03T16:07:38;10.20;75.70
44215;DHT22;29884;47.450;19.124;2023-04-03T16:10:05;10.30;75.00
44215;DHT22;29884;47.450;19.124;2023-04-03T16:12:31;10.20;75.30
44215;DHT22;29884;47.450;19.124;2023-04-03T16:14:57;10.20;75.50
44215;DHT22;29884;47.450;19.124;2023-04-03T16:17:22;10.10;74.70
44215;DHT22;29884;47.450;19.124;2023-04-03T16:19:48;9.90;73.00
44215;DHT22;29884;47.450;19.124;2023-04-03T16:22:14;9.70;72.20
44215;DHT22;29884;47.450;19.124;2023-04-03T16:24:40;9.40;70.40
44215;DHT22;29884;47.450;19.124;2023-04-03T16:27:06;9.30;70.60
44215;DHT22;29884;47.450;19.124;2023-04-03T16:29:31;9.20;71.20
44215;DHT22;29884;47.450;19.124;2023-04-03T16:31:58;9.20;71.30
44215;DHT22;29884;47.450;19.124;2023-04-03T16:34:24;9.20;71.10
44215;DHT22;29884;47.450;19.124;2023-04-03T16:36:51;9.10;71.70
44215;DHT22;29884;47.450;19.124;2023-04-03T16:39:18;9.10;73.10
44215;DHT22;29884;47.450;19.124;2023-04-03T16:41:43;9.00;72.70
44215;DHT22;29884;47.450;19.124;2023-04-03T16:44:10;8.90;72.20
44215;DHT22;29884;47.450;19.124;2023-04-03T16:46:36;8.90;73.10
44215;DHT22;29884;47.450;19.124;2023-04-03T16:49:03;8.80;73.90
44215;DHT22;29884;47.450;19.124;2023-04-03T16:51:29;8.80;73.60
44215;DHT22;29884;47.450;19.124;2023-04-03T16:53:55;8.80;74.00
44215;DHT22;29884;47.450;19.124;2023-04-03T16:56:21;8.70;72.90
44215;DHT22;29884;47.450;19.124;2023-04-03T16:58:47;8.70;74.10
44215;DHT22;29884;47.450;19.124;2023-04-03T17:01:15;8.60;73.60
44215;DHT22;29884;47.450;19.124;2023-04-03T17:03:41;8.60;74.20
44215;DHT22;29884;47.450;19.124;2023-04-03T17:06:07;8.50;74.20
44215;DHT22;29884;47.450;19.124;2023-04-03T17:08:40;8.40;73.70
44215;DHT22;29884;47.450;19.124;2023-04-03T17:11:05;8.40;73.90
44215;DHT22;29884;47.450;19.124;2023-04-03T17:13:31;8.40;74.00
44215;DHT22;29884;47.450;19.124;2023-04-03T17:15:59;8.40;74.40
44215;DHT22;29884;47.450;19.124;2023-04-03T17:18:26;8.40;74.80
44215;DHT22;29884;47.450;19.124;2023-04-03T17:20:52;8.30;75.50
44215;DHT22;29884;47.450;19.124;2023-04-03T17:23:18;8.20;74.90
44215;DHT22;29884;47.450;19.124;2023-04-03T17:25:44;8.10;75.30
44215;DHT22;29884;47.450;19.124;2023-04-03T17:28:10;8.00;75.00
44215;DHT22;29884;47.450;19.124;2023-04-03T17:30:35;8.00;76.60
44215;DHT22;29884;47.450;19.124;2023-04-03T17:33:01;8.00;76.80
44215;DHT22;29884;47.450;19.124;2023-04-03T17:35:27;8.00;75.40
44215;DHT22;29884;47.450;19.124;2023-04-03T17:37:53;7.90;75.30
44215;DHT22;29884;47.450;19.124;2023-04-03T17:40:19;7.90;76.10
44215;DHT22;29884;47.450;19.124;2023-04-03T17:42:44;7.90;74.80